Time;durP1;ratioP1;P1;durP2;ratioP2;P2;SDS_P1;SDS_P2;PMS_P1;PMS_P2;Temp;Humidity;BMP_temperature;BMP_pressure;BME280_temperature;BME280_humidity;BME280_pressure;Samples;Min_cycle;Max_cycle;Signal;HPM_P1;HPM_P2
2022/07/03 00:01:23;;;;;;;;;;;;;;;28.07;34.17;101069.13;5079279;28;1072;-45
2022/07/03 00:03:48;;;;;;;;;;;;;;;28.12;34.37;101076.69;5078372;28;1095;-45
2022/07/03 00:06:13;;;;;;;;;;;;;;;28.13;33.82;101070.25;5078937;28;896;-45
2022/07/03 00:08:39;;;;;;;;;;;;;;;28.09;33.88;101067.06;5079144;28;982;-46
2022/07/03 00:11:07;;;;;;;;;;;;;;;28.08;33.89;101067.25;5079248;28;1136;-46
2022/07/03 00:13:32;;;;;;;;;;;;;;;28.07;34.08;101060.19;5061064;28;1065;-45
2022/07/03 00:15:57;;;;;;;;;;;;;;;28.09;34.10;101056.25;5078548;28;1000;-47
2022/07/03 00:18:23;;;;;;;;;;;;;;;28.09;34.06;101055.44;5078969;28;1961;-47
2022/07/03 00:20:48;;;;;;;;;;;;;;;28.05;34.19;101057.66;5078524;28;1036;-46
2022/07/03 00:23:16;;;;;;;;;;;;;;;28.05;33.85;101051.41;5079153;28;993;-46
2022/07/03 00:25:41;;;;;;;;;;;;;;;28.07;34.00;101049.34;5079027;28;1007;-46
2022/07/03 00:28:07;;;;;;;;;;;;;;;28.05;34.03;101046.00;5078949;28;1163;-47
2022/07/03 00:30:32;;;;;;;;;;;;;;;28.05;33.96;101054.94;5078177;28;905;-46
2022/07/03 00:32:58;;;;;;;;;;;;;;;28.04;34.14;101057.84;5060891;28;1353;-45
2022/07/03 00:35:23;;;;;;;;;;;;;;;28.03;34.48;101048.06;5061057;28;1065;-45
2022/07/03 00:37:49;;;;;;;;;;;;;;;28.01;34.51;101052.81;5091410;28;1898;-48
2022/07/03 00:40:14;;;;;;;;;;;;;;;28.03;33.90;101057.00;5078624;28;996;-47
2022/07/03 00:42:39;;;;;;;;;;;;;;;28.06;33.77;101053.09;5084791;28;1048;-46
2022/07/03 00:45:06;;;;;;;;;;;;;;;28.04;33.84;101053.28;5079416;28;1171;-45
2022/07/03 00:47:31;;;;;;;;;;;;;;;28.02;33.83;101059.88;5078502;28;1040;-47
2022/07/03 00:50:00;;;;;;;;;;;;;;;28.01;33.80;101050.91;5059924;28;1181;-45
2022/07/03 00:52:25;;;;;;;;;;;;;;;27.98;34.23;101056.69;5080001;28;948;-47
2022/07/03 00:55:00;;;;;;;;;;;;;;;27.97;34.10;101050.47;5059961;28;1040;-48
2022/07/03 00:57:28;;;;;;;;;;;;;;;27.98;33.96;101045.88;5071923;28;1911;-44
2022/07/03 00:59:54;;;;;;;;;;;;;;;27.97;34.09;101047.75;5091145;28;1195;-47
2022/07/03 01:02:22;;;;;;;;;;;;;;;27.95;34.06;101048.94;5078276;28;1036;-44
2022/07/03 01:04:51;;;;;;;;;;;;;;;27.92;34.23;101044.75;5071811;28;1001;-44
2022/07/03 01:07:36;;;;;;;;;;;;;;;27.94;33.95;101058.09;5077258;28;975;-44
2022/07/03 01:10:01;;;;;;;;;;;;;;;27.90;34.50;101049.50;5073212;28;1107;-48
2022/07/03 01:12:33;;;;;;;;;;;;;;;27.95;34.39;101044.38;5077745;28;1186;-47
2022/07/03 01:15:05;;;;;;;;;;;;;;;28.02;34.01;101049.91;5078200;28;1040;-45
2022/07/03 01:17:31;;;;;;;;;;;;;;;27.93;34.18;101046.44;5059997;28;1955;-45
2022/07/03 01:20:00;;;;;;;;;;;;;;;27.97;34.04;101047.75;5077235;28;1040;-46
2022/07/03 01:22:28;;;;;;;;;;;;;;;27.98;33.92;101041.31;5075371;28;981;-47
2022/07/03 01:24:54;;;;;;;;;;;;;;;27.90;33.93;101038.69;5077654;28;1005;-46
2022/07/03 01:27:23;;;;;;;;;;;;;;;27.87;34.05;101042.59;5077825;28;1107;-47
2022/07/03 01:29:52;;;;;;;;;;;;;;;27.90;34.41;101049.50;5059661;28;1172;-47
2022/07/03 01:32:17;;;;;;;;;;;;;;;27.89;34.21;101041.56;5059773;28;1072;-47
2022/07/03 01:34:43;;;;;;;;;;;;;;;27.92;34.31;101031.22;5059030;28;1425;-47
2022/07/03 01:37:09;;;;;;;;;;;;;;;27.89;34.46;101034.31;5086007;28;1897;-46
2022/07/03 01:39:34;;;;;;;;;;;;;;;27.86;34.09;101034.66;5081488;28;1549;-49
2022/07/03 01:42:00;;;;;;;;;;;;;;;27.93;34.21;101030.19;5059649;28;1049;-47
2022/07/03 01:44:25;;;;;;;;;;;;;;;27.91;34.69;101034.94;5059676;28;1020;-47
2022/07/03 01:46:51;;;;;;;;;;;;;;;27.96;34.44;101039.81;5059665;28;1223;-44
2022/07/03 01:49:16;;;;;;;;;;;;;;;27.96;33.82;101037.13;5067721;28;1122;-46
2022/07/03 01:51:42;;;;;;;;;;;;;;;27.91;33.96;101032.25;5061930;28;1100;-49
2022/07/03 01:54:08;;;;;;;;;;;;;;;27.94;34.18;101031.06;5077029;28;1020;-44
2022/07/03 01:56:33;;;;;;;;;;;;;;;27.89;34.24;101025.34;5081239;28;1055;-47
2022/07/03 01:58:59;;;;;;;;;;;;;;;27.93;33.91;101027.50;5058694;28;1913;-46
2022/07/03 02:01:27;;;;;;;;;;;;;;;27.92;33.80;101031.22;5076710;28;953;-48
2022/07/03 02:04:11;;;;;;;;;;;;;;;27.81;34.44;101026.25;5076533;28;1210;-47
2022/07/03 02:06:40;;;;;;;;;;;;;;;27.77;34.62;101017.66;5084110;28;840;-44
2022/07/03 02:09:06;;;;;;;;;;;;;;;27.81;34.85;101023.56;5079987;28;1142;-49
2022/07/03 02:11:35;;;;;;;;;;;;;;;27.83;34.27;101018.78;5076490;28;997;-45
2022/07/03 02:14:30;;;;;;;;;;;;;;;27.83;33.86;101029.59;5076951;28;1068;-46
2022/07/03 02:17:11;;;;;;;;;;;;;;;27.87;34.24;101025.53;5050680;28;1902;-48
2022/07/03 02:19:51;;;;;;;;;;;;;;;27.83;33.99;101019.63;5076085;28;1055;-49
2022/07/03 02:22:18;;;;;;;;;;;;;;;27.91;33.98;101015.19;5074996;28;1421;-46
2022/07/03 02:24:44;;;;;;;;;;;;;;;27.91;33.84;101020.59;5075884;28;1210;-45
2022/07/03 02:27:20;;;;;;;;;;;;;;;27.92;34.13;101027.69;5076255;28;1013;-45
2022/07/03 02:29:56;;;;;;;;;;;;;;;27.93;34.09;101029.34;5076511;28;1104;-45
2022/07/03 02:32:22;;;;;;;;;;;;;;;27.94;33.76;101029.19;5076811;28;989;-45
2022/07/03 02:35:16;;;;;;;;;;;;;;;27.88;34.36;101027.19;5076324;28;1195;-47
2022/07/03 02:37:47;;;;;;;;;;;;;;;27.90;34.01;101024.31;5065136;28;1981;-46
2022/07/03 02:40:35;;;;;;;;;;;;;;;27.87;34.54;101025.53;5069731;28;1056;-47
2022/07/03 02:43:00;;;;;;;;;;;;;;;27.89;34.17;101023.50;5028186;28;1068;-45
2022/07/03 02:45:26;;;;;;;;;;;;;;;27.86;34.24;101023.84;5076584;28;1036;-47
2022/07/03 02:47:56;;;;;;;;;;;;;;;27.89;34.21;101022.66;5058219;28;1052;-44
2022/07/03 02:50:21;;;;;;;;;;;;;;;27.86;33.91;101026.56;5053486;28;890;-46
2022/07/03 02:52:52;;;;;;;;;;;;;;;27.85;34.30;101030.28;5078753;28;961;-46
2022/07/03 02:55:26;;;;;;;;;;;;;;;27.93;34.01;101032.06;5076137;28;1396;-44
2022/07/03 02:57:55;;;;;;;;;;;;;;;27.95;33.76;101036.28;5085340;28;1989;-45
2022/07/03 03:00:21;;;;;;;;;;;;;;;27.92;33.98;101043.91;5059357;28;1190;-46
2022/07/03 03:02:46;;;;;;;;;;;;;;;27.97;33.86;101046.91;5067093;28;810;-47
2022/07/03 03:05:20;;;;;;;;;;;;;;;27.95;33.92;101043.53;5079072;28;1171;-46
2022/07/03 03:07:49;;;;;;;;;;;;;;;27.89;33.90;101050.53;5075534;28;1128;-47
2022/07/03 03:10:14;;;;;;;;;;;;;;;27.86;34.06;101045.47;5075911;28;1064;-45
2022/07/03 03:12:40;;;;;;;;;;;;;;;27.86;33.90;101043.59;5058012;28;1171;-51
2022/07/03 03:15:06;;;;;;;;;;;;;;;27.91;33.55;101043.06;5077621;28;1557;-45
2022/07/03 03:17:49;;;;;;;;;;;;;;;27.55;34.83;101052.59;5080207;28;1901;-50
2022/07/03 03:20:18;;;;;;;;;;;;;;;27.39;37.16;101048.13;5083330;28;1000;-50
2022/07/03 03:22:54;;;;;;;;;;;;;;;27.43;36.69;101044.03;5073881;28;973;-47
2022/07/03 03:25:20;;;;;;;;;;;;;;;27.35;36.55;101039.53;5057952;28;1072;-52
2022/07/03 03:27:45;;;;;;;;;;;;;;;27.37;36.32;101045.59;5080672;28;764;-50
2022/07/03 03:30:10;;;;;;;;;;;;;;;26.95;37.11;101035.97;5085440;28;1063;-51
2022/07/03 03:32:36;;;;;;;;;;;;;;;27.11;37.11;101043.22;5079787;28;1222;-49
2022/07/03 03:35:01;;;;;;;;;;;;;;;27.15;37.10;101047.22;5083719;28;957;-49
2022/07/03 03:37:26;;;;;;;;;;;;;;;27.15;37.39;101044.53;5062320;28;1957;-48
2022/07/03 03:39:52;;;;;;;;;;;;;;;27.20;37.62;101050.25;5079768;28;1091;-49
2022/07/03 03:42:17;;;;;;;;;;;;;;;27.14;38.82;101045.56;5081900;28;1067;-49
2022/07/03 03:44:42;;;;;;;;;;;;;;;26.59;39.30;101046.19;5079453;28;1140;-48
2022/07/03 03:47:08;;;;;;;;;;;;;;;26.36;39.65;101048.78;5080077;28;989;-48
2022/07/03 03:49:33;;;;;;;;;;;;;;;25.77;39.81;101039.81;5061467;28;1151;-54
2022/07/03 03:51:58;;;;;;;;;;;;;;;25.83;41.37;101044.53;5087628;28;1038;-51
2022/07/03 03:54:24;;;;;;;;;;;;;;;25.09;43.24;101045.19;5083197;28;946;-45
2022/07/03 03:56:49;;;;;;;;;;;;;;;24.12;45.06;101047.75;5079343;28;1909;-43
2022/07/03 03:59:14;;;;;;;;;;;;;;;24.86;43.29;101051.13;5092899;28;1024;-43
2022/07/03 04:01:40;;;;;;;;;;;;;;;20.88;53.28;101061.38;5077666;28;1376;-35
2022/07/03 04:04:05;;;;;;;;;;;;;;;19.90;55.44;101042.84;5079158;28;988;-37
2022/07/03 04:06:30;;;;;;;;;;;;;;;19.73;56.26;101036.22;5077995;28;894;-35
2022/07/03 04:08:56;;;;;;;;;;;;;;;22.36;44.29;101047.44;5078274;28;2368;-52
2022/07/03 04:11:21;;;;;;;;;;;;;;;23.39;42.91;101046.84;5079033;28;2174;-50
2022/07/03 04:13:46;;;;;;;;;;;;;;;19.54;52.97;101046.56;5078994;28;2288;-47
2022/07/03 04:16:12;;;;;;;;;;;;;;;22.16;44.00;101049.31;5075179;28;1748;-53
2022/07/03 04:18:37;;;;;;;;;;;;;;;23.23;47.36;101051.00;5070548;28;1975;-54
2022/07/03 04:21:03;;;;;;;;;;;;;;;19.41;52.37;101044.03;5058901;28;1874;-48
2022/07/03 04:23:28;;;;;;;;;;;;;;;21.19;48.73;101047.16;5091821;28;2132;-49
2022/07/03 04:25:54;;;;;;;;;;;;;;;23.16;46.25;101048.06;5078915;28;1179;-49
2022/07/03 04:28:19;;;;;;;;;;;;;;;23.88;39.53;101053.72;5079565;28;1044;-48
2022/07/03 04:30:44;;;;;;;;;;;;;;;23.76;42.40;101053.09;5076381;28;1056;-48
2022/07/03 04:33:09;;;;;;;;;;;;;;;19.33;52.59;101052.66;5076106;28;1192;-49
2022/07/03 04:35:35;;;;;;;;;;;;;;;21.89;44.88;101062.41;5082605;28;919;-49
2022/07/03 04:38:00;;;;;;;;;;;;;;;22.99;46.59;101057.75;5090679;28;1957;-52
2022/07/03 04:40:25;;;;;;;;;;;;;;;19.56;50.98;101054.44;5079041;28;1044;-46
2022/07/03 04:42:51;;;;;;;;;;;;;;;21.40;45.81;101062.31;5070636;28;1151;-43
2022/07/03 04:47:51;;;;;;;;;;;;;;;20.02;51.45;101055.16;5297980;22;7693;-31
2022/07/03 04:50:16;;;;;;;;;;;;;;;20.46;53.37;101064.06;4993785;28;1738;-30
2022/07/03 04:52:42;;;;;;;;;;;;;;;22.80;42.90;101066.72;4997147;28;1982;-31
2022/07/03 04:55:09;;;;;;;;;;;;;;;20.14;51.84;101058.66;4998180;28;1792;-37
2022/07/03 04:57:35;;;;;;;;;;;;;;;20.99;50.04;101057.78;4995803;28;2260;-43
2022/07/03 05:00:00;;;;;;;;;;;;;;;23.17;41.61;101055.13;4996704;28;2153;-45
2022/07/03 05:02:25;;;;;;;;;;;;;;;20.46;51.90;101064.94;4999018;28;2005;-46
2022/07/03 05:04:50;;;;;;;;;;;;;;;22.39;45.68;101065.94;4998867;28;1016;-45
2022/07/03 05:07:16;;;;;;;;;;;;;;;23.76;39.02;101069.22;4998589;28;1069;-44
2022/07/03 05:09:41;;;;;;;;;;;;;;;22.44;45.58;101068.16;4998851;28;1118;-45
2022/07/03 05:12:06;;;;;;;;;;;;;;;23.31;41.67;101053.78;4998395;28;1156;-46
2022/07/03 05:14:32;;;;;;;;;;;;;;;24.45;38.61;101061.47;4998686;28;1058;-45
2022/07/03 05:16:57;;;;;;;;;;;;;;;22.66;47.74;101068.88;4998321;28;1898;-43
2022/07/03 05:19:22;;;;;;;;;;;;;;;23.74;39.62;101061.31;4998697;28;901;-46
2022/07/03 05:21:48;;;;;;;;;;;;;;;23.47;42.22;101063.06;4998227;28;1086;-44
2022/07/03 05:24:13;;;;;;;;;;;;;;;23.18;42.95;101061.34;4998929;28;1078;-43
2022/07/03 05:26:38;;;;;;;;;;;;;;;24.28;38.26;101062.31;4998349;28;884;-42
2022/07/03 05:29:04;;;;;;;;;;;;;;;22.69;46.60;101071.25;4998306;28;1161;-42
2022/07/03 05:31:29;;;;;;;;;;;;;;;23.54;41.59;101066.81;4993827;28;1062;-43
2022/07/03 05:33:54;;;;;;;;;;;;;;;22.87;44.91;101073.19;4997683;28;2694;-42
2022/07/03 05:36:19;;;;;;;;;;;;;;;23.56;42.39;101066.66;4990744;28;1385;-42
2022/07/03 05:41:45;;;;;;;;;;;;;;;23.52;41.55;101070.66;4977806;28;1203;-42
2022/07/03 05:44:10;;;;;;;;;;;;;;;23.36;44.49;101069.44;4992888;28;1359;-43
2022/07/03 05:46:36;;;;;;;;;;;;;;;23.29;42.36;101079.09;4997624;28;1100;-43
2022/07/03 05:49:01;;;;;;;;;;;;;;;24.37;38.50;101077.53;4997091;28;983;-45
2022/07/03 05:51:26;;;;;;;;;;;;;;;22.81;50.81;101084.50;4997688;28;1019;-43
2022/07/03 05:53:52;;;;;;;;;;;;;;;24.05;40.30;101082.44;4997903;28;1153;-40
2022/07/03 05:56:17;;;;;;;;;;;;;;;22.67;48.27;101081.28;4997801;28;1217;-43
2022/07/03 05:58:42;;;;;;;;;;;;;;;23.82;42.56;101082.88;4997484;28;1910;-42
2022/07/03 06:01:08;;;;;;;;;;;;;;;23.12;48.35;101087.78;4993641;28;1015;-41
2022/07/03 06:03:33;;;;;;;;;;;;;;;22.99;46.97;101085.44;4992252;28;2364;-43
2022/07/03 06:05:59;;;;;;;;;;;;;;;24.65;42.23;101090.84;4994818;28;1296;-39
2022/07/03 06:08:24;;;;;;;;;;;;;;;22.16;50.10;101085.97;4995575;28;1065;-40
2022/07/03 06:10:49;;;;;;;;;;;;;;;23.64;44.00;101090.09;4995755;28;1122;-42
2022/07/03 06:13:14;;;;;;;;;;;;;;;23.55;45.64;101087.31;4997901;28;1006;-42
2022/07/03 06:15:40;;;;;;;;;;;;;;;22.02;51.37;101094.28;4996636;28;1315;-42
2022/07/03 06:18:05;;;;;;;;;;;;;;;23.17;45.90;101097.22;4979773;28;2696;-42
2022/07/03 06:20:30;;;;;;;;;;;;;;;24.02;44.17;101095.34;4992883;28;1241;-42
2022/07/03 06:22:55;;;;;;;;;;;;;;;22.22;49.87;101101.50;4895868;28;17428;-42
2022/07/03 06:25:21;;;;;;;;;;;;;;;22.87;46.98;101103.53;4749049;28;12662;-42
2022/07/03 06:27:46;;;;;;;;;;;;;;;24.36;39.35;101096.50;4955708;28;1537;-44
2022/07/03 06:30:12;;;;;;;;;;;;;;;22.45;47.19;101102.03;4662132;28;12915;-43
2022/07/03 06:32:37;;;;;;;;;;;;;;;21.91;50.95;101099.78;4913538;28;13455;-43
2022/07/03 06:35:02;;;;;;;;;;;;;;;21.88;52.05;101100.91;4915764;28;11756;-44
2022/07/03 06:37:28;;;;;;;;;;;;;;;23.93;43.83;101097.09;4958371;28;11136;-42
2022/07/03 06:39:53;;;;;;;;;;;;;;;23.28;47.38;101105.09;4959817;28;1594;-45
2022/07/03 06:42:18;;;;;;;;;;;;;;;22.22;49.95;101104.19;5010298;28;1360;-45
2022/07/03 06:44:44;;;;;;;;;;;;;;;21.87;51.86;101101.06;5013355;28;1053;-44
2022/07/03 06:47:10;;;;;;;;;;;;;;;21.98;55.13;101105.41;5016017;28;1233;-44
2022/07/03 06:49:35;;;;;;;;;;;;;;;22.12;55.77;101106.84;5015965;28;1061;-45
2022/07/03 06:52:00;;;;;;;;;;;;;;;23.85;50.31;101105.94;5016596;28;1025;-45
2022/07/03 06:54:26;;;;;;;;;;;;;;;24.24;48.54;101106.66;5015126;28;1183;-44
2022/07/03 06:56:51;;;;;;;;;;;;;;;22.35;51.98;101110.09;5012159;28;1981;-45
2022/07/03 06:59:16;;;;;;;;;;;;;;;21.99;52.73;101107.09;5015487;28;1267;-45
2022/07/03 07:01:42;;;;;;;;;;;;;;;21.92;54.67;101109.50;5015637;28;2377;-43
2022/07/03 07:04:07;;;;;;;;;;;;;;;21.89;55.12;101113.31;5013331;28;1096;-43
2022/07/03 07:06:32;;;;;;;;;;;;;;;21.80;54.79;101110.63;5016441;28;1009;-42
2022/07/03 07:08:57;;;;;;;;;;;;;;;22.13;56.09;101105.84;5016209;28;895;-43
2022/07/03 07:11:23;;;;;;;;;;;;;;;24.17;47.47;101104.56;5013378;28;965;-44
2022/07/03 07:13:48;;;;;;;;;;;;;;;23.27;50.51;101099.88;5013556;28;1288;-44
2022/07/03 07:16:13;;;;;;;;;;;;;;;22.28;55.14;101100.91;5012946;28;979;-45
2022/07/03 07:18:41;;;;;;;;;;;;;;;22.13;56.38;101100.50;5011574;28;1910;-44
2022/07/03 07:21:07;;;;;;;;;;;;;;;22.06;57.31;101102.88;5014610;28;1212;-42
2022/07/03 07:23:33;;;;;;;;;;;;;;;22.06;54.90;101094.00;5016192;28;1202;-45
2022/07/03 07:25:58;;;;;;;;;;;;;;;21.95;55.39;101103.88;5015876;28;1029;-42
2022/07/03 07:28:23;;;;;;;;;;;;;;;21.95;52.67;101103.03;5016052;28;990;-43
2022/07/03 07:30:49;;;;;;;;;;;;;;;21.88;52.89;101102.72;5015991;28;1132;-42
2022/07/03 07:33:14;;;;;;;;;;;;;;;21.85;53.61;101103.88;5013015;28;2510;-43
2022/07/03 07:35:39;;;;;;;;;;;;;;;22.15;52.31;101101.22;5011902;28;1231;-42
2022/07/03 07:38:04;;;;;;;;;;;;;;;24.25;46.21;101106.50;5008504;28;1902;-44
2022/07/03 07:40:30;;;;;;;;;;;;;;;23.95;45.78;101104.03;5012668;28;1104;-44
2022/07/03 07:42:55;;;;;;;;;;;;;;;22.35;52.10;101120.81;5013609;28;1069;-39
2022/07/03 07:45:21;;;;;;;;;;;;;;;21.99;52.78;101107.09;5014408;28;1204;-41
2022/07/03 07:47:46;;;;;;;;;;;;;;;21.89;53.84;101113.31;5015768;28;1139;-42
2022/07/03 07:50:12;;;;;;;;;;;;;;;21.94;54.19;101117.41;5015570;28;1227;-44
2022/07/03 07:52:37;;;;;;;;;;;;;;;21.88;55.24;101126.84;5014228;28;1034;-44
2022/07/03 07:55:03;;;;;;;;;;;;;;;23.97;49.90;101120.00;5015806;28;1005;-43
2022/07/03 07:57:37;;;;;;;;;;;;;;;23.79;48.68;101122.66;5016139;28;2335;-42
2022/07/03 08:00:08;;;;;;;;;;;;;;;22.33;52.38;101129.97;5014708;28;1017;-43
2022/07/03 08:05:35;;;;;;;;;;;;;;;21.92;54.94;101133.59;5005809;28;1241;-42
2022/07/03 08:08:10;;;;;;;;;;;;;;;21.80;54.94;101130.22;5012712;28;980;-42
2022/07/03 08:10:36;;;;;;;;;;;;;;;21.82;55.97;101125.53;5011307;28;1189;-40
2022/07/03 08:13:02;;;;;;;;;;;;;;;21.80;56.44;101129.38;5015316;28;1251;-41
2022/07/03 08:15:27;;;;;;;;;;;;;;;21.83;55.63;101121.91;5016033;28;1057;-42
2022/07/03 08:17:52;;;;;;;;;;;;;;;21.83;56.07;101137.97;5018262;28;1960;-41
2022/07/03 08:20:18;;;;;;;;;;;;;;;21.69;54.49;101122.28;5019456;28;994;-41
2022/07/03 08:22:43;;;;;;;;;;;;;;;21.78;54.37;101132.19;5018960;28;1152;-44
2022/07/03 08:25:08;;;;;;;;;;;;;;;21.77;55.96;101131.28;5019627;28;1076;-39
2022/07/03 08:27:33;;;;;;;;;;;;;;;22.35;56.98;101134.22;5019280;28;1180;-43
2022/07/03 08:29:59;;;;;;;;;;;;;;;24.76;47.54;101139.97;5019321;28;809;-40
2022/07/03 08:32:24;;;;;;;;;;;;;;;22.93;50.49;101137.00;5015386;28;2283;-38
2022/07/03 08:34:49;;;;;;;;;;;;;;;22.27;54.02;101137.59;5016348;28;1219;-41
2022/07/03 08:37:15;;;;;;;;;;;;;;;22.04;54.88;101137.00;5015649;28;1902;-40
2022/07/03 08:39:40;;;;;;;;;;;;;;;21.90;55.15;101132.91;5016598;28;1310;-42
2022/07/03 08:42:05;;;;;;;;;;;;;;;21.84;55.20;101130.75;5016035;28;1045;-43
2022/07/03 08:44:30;;;;;;;;;;;;;;;21.87;55.89;101127.84;5001640;28;1025;-42
2022/07/03 08:46:56;;;;;;;;;;;;;;;21.94;55.50;101128.97;5018375;28;1148;-40
2022/07/03 08:49:21;;;;;;;;;;;;;;;21.94;54.20;101136.16;5000651;28;1080;-40
2022/07/03 08:51:47;;;;;;;;;;;;;;;21.92;54.37;101133.59;5018988;28;986;-40
2022/07/03 08:54:12;;;;;;;;;;;;;;;21.88;54.56;101137.56;5019049;28;1089;-42
2022/07/03 08:56:37;;;;;;;;;;;;;;;21.94;54.13;101146.88;5018745;28;1026;-41
2022/07/03 08:59:03;;;;;;;;;;;;;;;21.85;53.75;101137.84;5018086;28;1909;-40
2022/07/03 09:01:28;;;;;;;;;;;;;;;;;;5016478;28;1156;-43
2022/07/03 09:03:53;;;;;;;;;;;;;;;21.87;53.26;101138.56;5016516;28;2634;-45
2022/07/03 09:06:18;;;;;;;;;;;;;;;21.88;52.73;101133.06;4993900;28;1062;-41
2022/07/03 09:08:44;;;;;;;;;;;;;;;22.19;55.79;101137.44;5018089;28;1278;-41
2022/07/03 09:11:10;;;;;;;;;;;;;;;22.46;55.16;101141.25;4997629;28;1231;-42
2022/07/03 09:13:35;;;;;;;;;;;;;;;22.18;53.71;101137.59;5017681;28;1012;-41
2022/07/03 09:16:00;;;;;;;;;;;;;;;21.99;52.98;101132.06;5017759;28;1008;-38
2022/07/03 09:18:39;;;;;;;;;;;;;;;22.03;53.62;101143.34;5018559;28;1905;-40
2022/07/03 09:21:04;;;;;;;;;;;;;;;21.99;53.47;101140.09;5017914;28;1112;-43
2022/07/03 09:23:34;;;;;;;;;;;;;;;22.00;52.61;101140.97;5017574;28;974;-41
2022/07/03 09:26:01;;;;;;;;;;;;;;;22.00;52.52;101149.81;5017939;28;1049;-41
2022/07/03 09:28:45;;;;;;;;;;;;;;;22.00;52.27;101138.28;5017647;28;1088;-40
2022/07/03 09:31:14;;;;;;;;;;;;;;;22.15;51.48;101136.03;5015621;28;1509;-43
2022/07/03 09:33:51;;;;;;;;;;;;;;;22.00;49.55;101146.31;5013676;28;2505;-40
2022/07/03 09:36:17;;;;;;;;;;;;;;;21.91;50.41;101129.25;4999798;28;1271;-41
2022/07/03 09:38:45;;;;;;;;;;;;;;;21.89;51.96;101131.19;5000306;28;1902;-42
2022/07/03 09:41:11;;;;;;;;;;;;;;;21.82;50.34;101132.75;5017373;28;1108;-38
2022/07/03 09:43:36;;;;;;;;;;;;;;;21.89;51.00;101142.78;5018014;28;990;-40
2022/07/03 09:46:01;;;;;;;;;;;;;;;21.71;49.63;101139.03;4999868;28;1174;-40
2022/07/03 09:48:27;;;;;;;;;;;;;;;;;;5017376;28;1066;-38
2022/07/03 09:51:12;;;;;;;;;;;;;;;21.74;49.41;101133.38;5017704;28;1061;-41
2022/07/03 09:53:50;;;;;;;;;;;;;;;21.71;50.02;101139.88;5002369;28;1736;-40
2022/07/03 09:56:16;;;;;;;;;;;;;;;21.82;50.13;101132.75;5016991;28;1101;-44
2022/07/03 09:58:41;;;;;;;;;;;;;;;22.26;47.71;101137.72;5013465;28;1918;-39
2022/07/03 10:01:16;;;;;;;;;;;;;;;22.53;47.00;101124.59;5016673;28;885;-39
2022/07/03 10:03:41;;;;;;;;;;;;;;;22.67;46.91;101137.59;5016331;28;2575;-40
2022/07/03 10:06:06;;;;;;;;;;;;;;;22.60;46.68;101123.94;5017287;28;990;-38
2022/07/03 10:08:32;;;;;;;;;;;;;;;22.52;47.07;101126.44;5017345;28;994;-39
2022/07/03 10:10:57;;;;;;;;;;;;;;;22.38;47.20;101143.81;4998813;28;1164;-38
2022/07/03 10:13:22;;;;;;;;;;;;;;;22.39;47.73;101129.41;5017684;28;1005;-43
2022/07/03 10:15:47;;;;;;;;;;;;;;;22.41;46.41;101119.38;5016948;28;1160;-39
2022/07/03 10:18:13;;;;;;;;;;;;;;;22.45;45.95;101130.69;5016653;28;1886;-39
2022/07/03 10:20:48;;;;;;;;;;;;;;;22.57;45.86;101126.03;5011827;28;1006;-38
2022/07/03 10:23:16;;;;;;;;;;;;;;;22.44;45.55;101129.81;5016532;28;1084;-39
2022/07/03 10:25:41;;;;;;;;;;;;;;;22.42;45.60;101118.38;5012988;28;1002;-38
2022/07/03 10:28:07;;;;;;;;;;;;;;;22.37;45.76;101112.63;5016882;28;1033;-34
2022/07/03 10:30:32;;;;;;;;;;;;;;;22.46;45.86;101111.78;5017144;28;959;-36
2022/07/03 10:32:57;;;;;;;;;;;;;;;22.34;43.86;101104.84;4996314;28;1970;-36
2022/07/03 10:35:24;;;;;;;;;;;;;;;22.78;43.55;101099.03;5016966;28;998;-36
2022/07/03 10:37:49;;;;;;;;;;;;;;;22.76;39.93;101103.69;4999001;28;1914;-37
2022/07/03 10:46:11;;;;;;;;;;;;;;;22.41;43.31;101094.41;5016517;28;998;-40
2022/07/03 10:48:55;;;;;;;;;;;;;;;22.73;38.93;101088.75;5015843;28;1172;-36
2022/07/03 10:51:20;;;;;;;;;;;;;;;22.32;38.71;101088.09;5015630;28;1302;-37
2022/07/03 10:53:45;;;;;;;;;;;;;;;22.39;38.35;101078.47;5016699;28;959;-38
2022/07/03 10:56:10;;;;;;;;;;;;;;;22.51;40.48;101101.47;4998594;28;1309;-38
2022/07/03 10:58:59;;;;;;;;;;;;;;;22.38;39.79;101092.88;5010231;28;1993;-35
2022/07/03 11:01:29;;;;;;;;;;;;;;;22.17;39.53;101088.50;5003416;28;1391;-40
2022/07/03 11:03:59;;;;;;;;;;;;;;;22.06;40.20;101086.81;5012792;28;2512;-37
2022/07/03 11:06:42;;;;;;;;;;;;;;;22.96;36.38;101087.56;5013054;28;1245;-35
2022/07/03 11:09:14;;;;;;;;;;;;;;;22.70;35.70;101075.66;5012391;28;1061;-40
2022/07/03 11:11:54;;;;;;;;;;;;;;;22.21;38.93;101078.34;5016713;28;1235;-42
2022/07/03 11:14:20;;;;;;;;;;;;;;;23.65;35.36;101073.84;5016606;28;1053;-40
2022/07/03 11:16:45;;;;;;;;;;;;;;;23.18;36.54;101077.44;5016155;28;1018;-40
2022/07/03 11:19:11;;;;;;;;;;;;;;;22.84;35.80;101086.88;5013025;28;1914;-42
2022/07/03 11:21:36;;;;;;;;;;;;;;;22.66;34.35;101082.28;5014489;28;1243;-42
2022/07/03 11:24:16;;;;;;;;;;;;;;;22.62;35.99;101079.03;5015910;28;1306;-41
2022/07/03 11:26:42;;;;;;;;;;;;;;;22.66;38.91;101070.69;5016835;28;1065;-41
2022/07/03 11:29:07;;;;;;;;;;;;;;;24.37;35.49;101058.72;5013776;28;1239;-43
2022/07/03 11:31:32;;;;;;;;;;;;;;;23.97;35.54;101063.56;4998604;28;1096;-39
2022/07/03 11:33:58;;;;;;;;;;;;;;;23.11;37.52;101064.63;4996320;28;2763;-40
2022/07/03 11:36:26;;;;;;;;;;;;;;;22.73;37.75;101067.31;5016271;28;912;-41
2022/07/03 11:38:54;;;;;;;;;;;;;;;22.50;37.03;101069.44;5016399;28;1910;-41
2022/07/03 11:41:20;;;;;;;;;;;;;;;22.56;36.31;101065.31;5016156;28;1155;-40
2022/07/03 11:43:52;;;;;;;;;;;;;;;22.50;37.36;101064.09;5015970;28;1255;-42
2022/07/03 11:46:18;;;;;;;;;;;;;;;23.38;35.79;101055.88;5016175;28;1199;-42
2022/07/03 11:48:43;;;;;;;;;;;;;;;24.38;32.11;101065.78;5013928;28;1496;-40
2022/07/03 11:51:08;;;;;;;;;;;;;;;23.29;33.69;101060.31;5011654;28;1120;-41
2022/07/03 11:53:34;;;;;;;;;;;;;;;22.86;34.66;101058.06;5016508;28;1004;-40
2022/07/03 11:56:02;;;;;;;;;;;;;;;22.54;35.62;101060.09;5019761;28;1045;-40
2022/07/03 11:58:51;;;;;;;;;;;;;;;21.89;38.49;101051.72;5019238;28;1969;-41
2022/07/03 12:01:25;;;;;;;;;;;;;;;23.59;34.65;101064.53;5011161;28;1400;-42
2022/07/03 12:03:51;;;;;;;;;;;;;;;23.22;34.48;101057.38;4990115;28;2605;-42
2022/07/03 12:06:16;;;;;;;;;;;;;;;22.73;34.74;101063.78;5016080;28;1460;-42
2022/07/03 12:08:45;;;;;;;;;;;;;;;22.99;33.95;101068.47;5019937;28;1069;-40
2022/07/03 12:11:11;;;;;;;;;;;;;;;23.13;33.08;101064.47;5019017;28;1130;-42
2022/07/03 12:13:36;;;;;;;;;;;;;;;22.93;32.93;101061.88;5019567;28;874;-41
2022/07/03 12:16:08;;;;;;;;;;;;;;;23.50;31.87;101061.91;5017890;28;1028;-41
2022/07/03 12:18:50;;;;;;;;;;;;;;;24.16;30.79;101057.19;5019814;28;1901;-42
2022/07/03 12:21:15;;;;;;;;;;;;;;;24.57;30.69;101062.03;5019473;28;958;-43
2022/07/03 12:23:46;;;;;;;;;;;;;;;23.76;32.34;101051.25;5019239;28;1081;-42
2022/07/03 12:26:12;;;;;;;;;;;;;;;23.55;32.16;101062.31;5019480;28;853;-42
2022/07/03 12:28:37;;;;;;;;;;;;;;;22.95;33.45;101053.69;5019842;28;1208;-42
2022/07/03 12:31:03;;;;;;;;;;;;;;;22.96;33.90;101041.94;5001519;28;1061;-41
2022/07/03 12:33:30;;;;;;;;;;;;;;;22.70;35.67;101042.59;5018341;28;2442;-41
2022/07/03 12:36:08;;;;;;;;;;;;;;;24.49;32.76;101059.28;5001655;28;1061;-43
2022/07/03 12:38:33;;;;;;;;;;;;;;;23.21;34.25;101048.47;5016094;28;1905;-42
2022/07/03 12:41:17;;;;;;;;;;;;;;;22.67;35.64;101057.13;5001766;28;1195;-42
2022/07/03 12:43:42;;;;;;;;;;;;;;;22.52;36.56;101048.72;5018850;28;1014;-43
2022/07/03 12:46:23;;;;;;;;;;;;;;;22.48;36.03;101049.97;5019163;28;1065;-41
2022/07/03 12:48:58;;;;;;;;;;;;;;;22.48;35.44;101045.47;5018932;28;974;-40
2022/07/03 12:51:55;;;;;;;;;;;;;;;22.68;35.64;101040.06;5019518;28;1033;-43
2022/07/03 12:54:21;;;;;;;;;;;;;;;24.76;31.55;101051.19;4981031;28;1464;-42
2022/07/03 12:56:46;;;;;;;;;;;;;;;23.12;34.12;101044.84;5015330;28;1262;-41
2022/07/03 12:59:24;;;;;;;;;;;;;;;22.49;35.16;101046.28;5000958;28;1973;-41
2022/07/03 13:02:00;;;;;;;;;;;;;;;23.06;35.40;101040.06;5014920;28;2499;-41
2022/07/03 13:04:35;;;;;;;;;;;;;;;24.20;31.93;101036.22;5018556;28;1049;-41
2022/07/03 13:07:06;;;;;;;;;;;;;;;22.99;35.77;101038.97;5018972;28;1109;-42